Time;durP1;ratioP1;P1;durP2;ratioP2;P2;SDS_P1;SDS_P2;PMS_P1;PMS_P2;Temp;Humidity;BMP_temperature;BMP_pressure;BME280_temperature;BME280_humidity;BME280_pressure;Samples;Min_cycle;Max_cycle;Signal;HPM_P1;HPM_P2
2023/06/21 00:02:24;;;;;;;;;;;;;;;22.99;93.89;99885.69;5026773;28;20281;-74
2023/06/21 00:04:50;;;;;;;;;;;;;;;23.00;94.05;99890.03;5010096;28;19924;-73
2023/06/21 00:07:15;;;;;;;;;;;;;;;22.97;93.38;99882.41;4993669;28;20424;-74
2023/06/21 00:09:41;;;;;;;;;;;;;;;22.94;92.97;99883.66;5009868;28;19918;-73
2023/06/21 00:12:06;;;;;;;;;;;;;;;22.65;93.59;99901.13;5018109;28;19933;-73
2023/06/21 00:14:32;;;;;;;;;;;;;;;22.64;93.84;99914.78;5009912;28;20016;-73
2023/06/21 00:16:57;;;;;;;;;;;;;;;22.63;94.48;99886.22;5011469;28;19956;-73
2023/06/21 00:19:23;;;;;;;;;;;;;;;22.62;95.63;99857.69;5011328;28;19989;-74
2023/06/21 00:21:48;;;;;;;;;;;;;;;22.66;95.55;99848.16;5010939;28;19913;-72
2023/06/21 00:24:15;;;;;;;;;;;;;;;22.63;95.79;99864.69;5010343;28;20406;-73
2023/06/21 00:26:42;;;;;;;;;;;;;;;22.64;95.57;99882.50;5010899;28;20292;-73
2023/06/21 00:29:11;;;;;;;;;;;;;;;22.63;95.85;99886.22;5025994;28;19944;-73
2023/06/21 00:31:37;;;;;;;;;;;;;;;22.59;96.15;99882.31;5025812;28;20011;-73
2023/06/21 00:34:02;;;;;;;;;;;;;;;22.59;96.17;99879.63;5010696;28;19972;-74
2023/06/21 00:36:28;;;;;;;;;;;;;;;22.55;95.79;99862.28;5011378;28;19918;-73
2023/06/21 00:38:53;;;;;;;;;;;;;;;22.45;96.71;99863.53;5010236;28;20008;-73
2023/06/21 00:41:19;;;;;;;;;;;;;;;22.38;98.28;99878.84;5010978;28;20288;-74
2023/06/21 00:43:44;;;;;;;;;;;;;;;22.23;99.87;99890.91;5009459;28;20373;-75
2023/06/21 00:46:11;;;;;;;;;;;;;;;22.09;100.00;99887.41;5026455;28;19924;-73
2023/06/21 00:48:37;;;;;;;;;;;;;;;21.98;100.00;99888.88;5010808;28;19921;-74
2023/06/21 00:51:03;;;;;;;;;;;;;;;22.01;100.00;99899.22;5025984;28;19925;-75
2023/06/21 00:53:29;;;;;;;;;;;;;;;22.05;100.00;99896.91;5009771;28;19917;-75
2023/06/21 00:55:55;;;;;;;;;;;;;;;22.06;100.00;99879.75;5010600;28;19975;-74
2023/06/21 00:58:21;;;;;;;;;;;;;;;22.04;100.00;99873.75;5006653;28;19917;-74
2023/06/21 01:00:48;;;;;;;;;;;;;;;21.97;100.00;99881.81;5013008;28;19925;-75
2023/06/21 01:03:14;;;;;;;;;;;;;;;21.89;100.00;99883.88;5028081;28;20103;-74
2023/06/21 01:05:41;;;;;;;;;;;;;;;21.84;100.00;99878.31;5012962;28;19917;-74
2023/06/21 01:08:12;;;;;;;;;;;;;;;21.78;100.00;99879.16;5014834;28;20017;-75
2023/06/21 01:11:02;;;;;;;;;;;;;;;21.71;100.00;99875.63;5013385;28;19921;-76
2023/06/21 01:13:27;;;;;;;;;;;;;;;21.56;100.00;99871.28;5028787;28;19928;-75
2023/06/21 01:15:58;;;;;;;;;;;;;;;21.58;100.00;99882.66;5014536;28;19921;-75
2023/06/21 01:18:26;;;;;;;;;;;;;;;21.60;100.00;99875.22;5015400;28;20288;-76
2023/06/21 01:20:53;;;;;;;;;;;;;;;21.61;100.00;99871.50;5014101;28;20007;-75
2023/06/21 01:23:26;;;;;;;;;;;;;;;21.68;100.00;99881.44;5029777;28;20004;-75
2023/06/21 01:25:57;;;;;;;;;;;;;;;21.65;100.00;99886.16;5011687;28;20282;-76
2023/06/21 01:28:23;;;;;;;;;;;;;;;21.57;100.00;99870.25;5014720;28;20266;-75
2023/06/21 01:30:49;;;;;;;;;;;;;;;21.50;100.00;99864.03;5014578;28;20410;-75
2023/06/21 01:33:17;;;;;;;;;;;;;;;21.48;100.00;99866.13;5010408;28;19917;-75
2023/06/21 01:35:43;;;;;;;;;;;;;;;21.52;100.00;99856.63;5013544;28;20391;-75
2023/06/21 01:38:08;;;;;;;;;;;;;;;21.47;100.00;99848.34;5013914;28;20425;-75
2023/06/21 01:40:36;;;;;;;;;;;;;;;21.46;100.00;99856.59;5029263;28;20369;-75
2023/06/21 01:43:02;;;;;;;;;;;;;;;21.45;100.00;99866.53;5012455;28;19948;-75
2023/06/21 01:45:27;;;;;;;;;;;;;;;21.42;100.00;99874.16;5014078;28;20312;-75
2023/06/21 01:47:53;;;;;;;;;;;;;;;21.35;100.00;99876.84;5012519;28;19921;-75
2023/06/21 01:50:19;;;;;;;;;;;;;;;21.19;100.00;99878.06;5013881;28;19939;-74
2023/06/21 01:52:46;;;;;;;;;;;;;;;21.12;100.00;99876.34;5014617;28;20697;-74
2023/06/21 01:55:12;;;;;;;;;;;;;;;21.05;100.00;99870.13;5032150;28;19918;-75
2023/06/21 01:57:37;;;;;;;;;;;;;;;21.08;100.00;99875.13;5017135;28;19928;-74
2023/06/21 02:00:16;;;;;;;;;;;;;;;20.97;100.00;99873.03;5016272;28;20320;-75
2023/06/21 02:02:53;;;;;;;;;;;;;;;20.81;100.00;99875.03;5032966;28;19956;-74
2023/06/21 02:05:19;;;;;;;;;;;;;;;20.64;100.00;99868.34;5013853;28;20249;-76
2023/06/21 02:07:46;;;;;;;;;;;;;;;20.60;100.00;99867.13;5030274;28;19980;-74
2023/06/21 02:10:12;;;;;;;;;;;;;;;20.48;100.00;99868.69;5015813;28;20379;-74
2023/06/21 02:12:40;;;;;;;;;;;;;;;20.51;100.00;99865.63;5016880;28;19954;-74
2023/06/21 02:15:05;;;;;;;;;;;;;;;20.61;100.00;99868.78;5032661;28;20312;-75
2023/06/21 02:17:31;;;;;;;;;;;;;;;20.62;100.00;99870.41;5032199;28;20011;-75
2023/06/21 02:19:57;;;;;;;;;;;;;;;20.57;100.00;99862.13;5017095;28;20016;-75
2023/06/21 02:22:23;;;;;;;;;;;;;;;20.54;100.00;99862.53;5016012;28;20003;-74
2023/06/21 02:24:53;;;;;;;;;;;;;;;20.48;100.00;99862.50;5022080;28;19929;-74
2023/06/21 02:27:18;;;;;;;;;;;;;;;20.49;100.00;99875.72;5015336;28;19921;-74
2023/06/21 02:29:43;;;;;;;;;;;;;;;20.36;100.00;99897.09;5016547;28;19918;-75
2023/06/21 02:32:09;;;;;;;;;;;;;;;20.10;100.00;99902.25;5017560;28;19926;-75
2023/06/21 02:34:34;;;;;;;;;;;;;;;20.02;100.00;99893.34;5016514;28;19971;-74
2023/06/21 02:37:02;;;;;;;;;;;;;;;20.00;100.00;99879.31;5016722;28;20273;-74
2023/06/21 02:39:27;;;;;;;;;;;;;;;20.07;100.00;99868.66;4999258;28;19921;-75
2023/06/21 02:41:54;;;;;;;;;;;;;;;20.11;100.00;99872.59;5015779;28;19975;-75
2023/06/21 02:44:20;;;;;;;;;;;;;;;20.18;100.00;99877.97;5016482;28;20000;-75
2023/06/21 02:46:46;;;;;;;;;;;;;;;20.24;100.00;99874.50;5013886;28;19968;-73
2023/06/21 02:49:11;;;;;;;;;;;;;;;20.24;100.00;99877.19;5016688;28;19917;-74
2023/06/21 02:51:39;;;;;;;;;;;;;;;20.22;100.00;99884.59;5031051;28;20056;-74
2023/06/21 02:54:04;;;;;;;;;;;;;;;20.16;100.00;99882.69;5015453;28;19956;-74
2023/06/21 02:56:30;;;;;;;;;;;;;;;20.22;100.00;99889.94;5015509;28;19979;-74
2023/06/21 02:58:56;;;;;;;;;;;;;;;20.21;100.00;99885.63;5014209;28;19921;-74
2023/06/21 03:01:21;;;;;;;;;;;;;;;20.14;100.00;99880.25;5015283;28;19917;-73
2023/06/21 03:03:47;;;;;;;;;;;;;;;20.15;100.00;99881.88;5016327;28;19921;-76
2023/06/21 03:06:12;;;;;;;;;;;;;;;20.11;100.00;99883.28;5031005;28;20348;-77
2023/06/21 03:08:39;;;;;;;;;;;;;;;20.11;100.00;99877.09;5015710;28;19952;-77
2023/06/21 03:11:08;;;;;;;;;;;;;;;20.12;100.00;99878.78;5013509;28;19921;-73
2023/06/21 03:13:37;;;;;;;;;;;;;;;20.12;100.00;99881.44;5021499;28;19921;-75
2023/06/21 03:16:06;;;;;;;;;;;;;;;20.10;100.00;99886.16;5014463;28;20003;-75
2023/06/21 03:18:32;;;;;;;;;;;;;;;19.80;100.00;99878.31;5030801;28;19917;-74
2023/06/21 03:21:00;;;;;;;;;;;;;;;19.75;100.00;99887.97;5015914;28;20426;-73
2023/06/21 03:23:27;;;;;;;;;;;;;;;19.76;100.00;99887.78;5013905;28;19922;-74
2023/06/21 03:25:53;;;;;;;;;;;;;;;19.82;100.00;99900.41;5029299;28;19988;-73
2023/06/21 03:28:18;;;;;;;;;;;;;;;19.60;100.00;99906.81;5014292;28;20012;-75
2023/06/21 03:30:43;;;;;;;;;;;;;;;19.31;100.00;99906.91;5015167;28;19956;-74
2023/06/21 03:33:10;;;;;;;;;;;;;;;19.08;100.00;99905.22;5014597;28;19922;-75
2023/06/21 03:35:36;;;;;;;;;;;;;;;19.02;100.00;99903.31;5013555;28;19963;-75
2023/06/21 03:38:01;;;;;;;;;;;;;;;19.04;100.00;99906.59;5012749;28;20008;-75
2023/06/21 03:40:33;;;;;;;;;;;;;;;18.99;100.00;99903.66;5011271;28;20300;-75
2023/06/21 03:42:59;;;;;;;;;;;;;;;19.10;100.00;99911.19;5012239;28;19917;-74
2023/06/21 03:45:24;;;;;;;;;;;;;;;18.94;100.00;99906.09;5027426;28;20427;-74
2023/06/21 03:47:54;;;;;;;;;;;;;;;18.78;100.00;99906.31;5010823;28;19971;-75
2023/06/21 03:50:20;;;;;;;;;;;;;;;18.71;100.00;99903.53;5013068;28;19940;-76
2023/06/21 03:52:46;;;;;;;;;;;;;;;18.65;100.00;99912.31;5026997;28;20324;-75
2023/06/21 03:55:14;;;;;;;;;;;;;;;18.72;100.00;99933.78;5023537;28;20286;-74
2023/06/21 03:57:41;;;;;;;;;;;;;;;18.65;100.00;99943.56;5012002;28;20285;-75
2023/06/21 04:00:09;;;;;;;;;;;;;;;18.49;100.00;99938.38;5044502;22;20262;-79
2023/06/21 04:02:40;;;;;;;;;;;;;;;18.41;100.00;99934.78;5029188;28;20285;-81
2023/06/21 04:05:06;;;;;;;;;;;;;;;18.35;100.00;99938.19;5029027;28;19921;-80
2023/06/21 04:07:31;;;;;;;;;;;;;;;18.30;100.00;99935.22;5029781;28;19921;-79
2023/06/21 04:09:57;;;;;;;;;;;;;;;18.25;100.00;99948.31;5031586;28;19920;-80
2023/06/21 04:12:22;;;;;;;;;;;;;;;18.36;100.00;99950.53;5029474;28;19917;-80
2023/06/21 04:14:47;;;;;;;;;;;;;;;18.48;100.00;99936.72;5030088;28;19997;-80
2023/06/21 04:17:13;;;;;;;;;;;;;;;18.46;100.00;99939.56;5029291;28;19921;-79
2023/06/21 04:19:38;;;;;;;;;;;;;;;18.44;100.00;99946.13;5029254;28;19995;-80
2023/06/21 04:22:05;;;;;;;;;;;;;;;18.51;100.00;99942.50;5013874;28;20372;-80
2023/06/21 04:24:31;;;;;;;;;;;;;;;18.64;100.00;99945.41;5029533;28;19917;-79
2023/06/21 04:26:58;;;;;;;;;;;;;;;18.77;100.00;99944.75;5029229;28;19936;-80
2023/06/21 04:29:24;;;;;;;;;;;;;;;18.89;100.00;99935.25;5029359;28;20003;-81
2023/06/21 04:31:52;;;;;;;;;;;;;;;18.94;100.00;99943.53;5029917;28;20333;-81
2023/06/21 04:34:20;;;;;;;;;;;;;;;18.97;100.00;99953.84;5030184;28;19924;-81
2023/06/21 04:36:47;;;;;;;;;;;;;;;19.05;100.00;99967.09;5026656;28;19921;-81
2023/06/21 04:39:16;;;;;;;;;;;;;;;19.10;100.00;99970.03;5031221;28;19917;-80
2023/06/21 04:41:41;;;;;;;;;;;;;;;19.10;100.00;99978.06;5030174;28;19925;-79
2023/06/21 04:44:07;;;;;;;;;;;;;;;19.10;100.00;99970.03;5030733;28;20458;-77
2023/06/21 04:46:36;;;;;;;;;;;;;;;19.12;100.00;99967.19;5029934;28;20379;-79
2023/06/21 04:49:04;;;;;;;;;;;;;;;19.19;100.00;99968.94;5030432;28;19928;-79
2023/06/21 04:51:30;;;;;;;;;;;;;;;19.19;100.00;99952.06;5030688;28;19999;-79
2023/06/21 04:53:58;;;;;;;;;;;;;;;19.17;100.00;99949.56;5030640;28;19917;-80
2023/06/21 04:56:25;;;;;;;;;;;;;;;19.26;100.00;99925.38;5030498;28;19917;-81
2023/06/21 04:58:50;;;;;;;;;;;;;;;19.28;100.00;99928.66;5030489;28;19928;-80
2023/06/21 05:01:16;;;;;;;;;;;;;;;19.40;100.00;99937.84;5029139;28;19917;-80
2023/06/21 05:03:41;;;;;;;;;;;;;;;19.47;100.00;99941.47;5025685;28;19996;-81
2023/06/21 05:06:07;;;;;;;;;;;;;;;19.56;100.00;99942.97;5027902;28;20067;-79
2023/06/21 05:08:32;;;;;;;;;;;;;;;19.54;100.00;99939.69;5030464;28;20357;-81
2023/06/21 05:10:58;;;;;;;;;;;;;;;19.53;100.00;99949.56;5032857;28;20404;-83
2023/06/21 05:13:23;;;;;;;;;;;;;;;19.53;100.00;99954.09;5030712;28;20365;-84
2023/06/21 05:15:48;;;;;;;;;;;;;;;19.47;100.00;99954.84;5032128;28;19913;-83
2023/06/21 05:18:14;;;;;;;;;;;;;;;19.39;100.00;99941.53;5032468;28;20077;-88
2023/06/21 05:20:39;;;;;;;;;;;;;;;19.49;100.00;99952.81;5042501;28;19984;-88
2023/06/21 05:23:04;;;;;;;;;;;;;;;19.52;100.00;99957.78;5041568;28;19913;-87
2023/06/21 05:25:30;;;;;;;;;;;;;;;19.60;100.00;99965.69;5036655;28;19917;-86
2023/06/21 05:27:55;;;;;;;;;;;;;;;19.63;100.00;99967.97;5052302;28;20011;-89
2023/06/21 05:30:21;;;;;;;;;;;;;;;19.61;100.00;99972.72;5041393;28;19994;-88
2023/06/21 05:32:46;;;;;;;;;;;;;;;19.62;100.00;99966.31;5040889;28;19928;-87
2023/06/21 05:35:11;;;;;;;;;;;;;;;19.56;100.00;99969.75;5042558;28;19971;-88
2023/06/21 05:37:37;;;;;;;;;;;;;;;19.51;100.00;99967.66;5043001;28;19984;-89
2023/06/21 05:40:03;;;;;;;;;;;;;;;19.56;100.00;99959.88;5042736;28;19917;-89
2023/06/21 05:42:29;;;;;;;;;;;;;;;19.62;100.00;99958.28;5040987;28;20029;-88
2023/06/21 05:44:54;;;;;;;;;;;;;;;19.67;100.00;99961.25;5043898;28;19917;-88
2023/06/21 05:47:19;;;;;;;;;;;;;;;19.78;100.00;99976.78;5048817;28;19981;-87
2023/06/21 05:49:45;;;;;;;;;;;;;;;19.90;100.00;99983.28;5046619;28;19975;-88
2023/06/21 05:52:10;;;;;;;;;;;;;;;19.99;100.00;99998.19;5047698;28;19917;-86
2023/06/21 05:54:37;;;;;;;;;;;;;;;20.06;100.00;99992.06;5047006;28;19917;-85
2023/06/21 05:57:04;;;;;;;;;;;;;;;20.05;100.00;99985.88;5043531;28;19918;-86
2023/06/21 05:59:29;;;;;;;;;;;;;;;20.07;100.00;99996.41;5041508;28;19940;-83
2023/06/21 06:01:54;;;;;;;;;;;;;;;20.12;100.00;99985.94;5033548;28;20349;-83
2023/06/21 06:04:19;;;;;;;;;;;;;;;20.24;100.00;99989.75;5028941;28;19921;-81
2023/06/21 06:06:46;;;;;;;;;;;;;;;20.34;100.00;99990.25;5030771;28;19917;-84
2023/06/21 06:09:12;;;;;;;;;;;;;;;20.41;100.00;99993.81;5030889;28;19964;-83
2023/06/21 06:11:37;;;;;;;;;;;;;;;20.43;100.00;100006.00;5032494;28;19960;-83
2023/06/21 06:14:03;;;;;;;;;;;;;;;20.50;100.00;100008.72;5033454;28;19939;-82
2023/06/21 06:16:28;;;;;;;;;;;;;;;20.55;100.00;99995.56;5032848;28;19964;-83
2023/06/21 06:18:54;;;;;;;;;;;;;;;20.63;100.00;99990.03;5032871;28;19971;-84
2023/06/21 06:21:22;;;;;;;;;;;;;;;20.59;100.00;99999.50;5033364;28;19917;-84
2023/06/21 06:23:51;;;;;;;;;;;;;;;20.67;100.00;99969.88;5033015;28;19931;-84
2023/06/21 06:26:21;;;;;;;;;;;;;;;20.80;100.00;99969.91;5034030;28;19917;-84
2023/06/21 06:28:48;;;;;;;;;;;;;;;20.85;100.00;99970.16;5028752;28;19917;-84
2023/06/21 06:31:13;;;;;;;;;;;;;;;20.97;100.00;99964.25;5032838;28;19920;-84
2023/06/21 06:33:38;;;;;;;;;;;;;;;21.09;100.00;99963.44;5032824;28;20022;-83
2023/06/21 06:36:04;;;;;;;;;;;;;;;21.17;100.00;99970.53;5032651;28;19917;-84
2023/06/21 06:38:31;;;;;;;;;;;;;;;21.22;100.00;99976.13;5031633;28;19920;-84
2023/06/21 06:40:57;;;;;;;;;;;;;;;21.33;100.00;99980.06;5032118;28;19948;-84
2023/06/21 06:43:22;;;;;;;;;;;;;;;21.44;100.00;99982.19;5031139;28;19960;-83
2023/06/21 06:45:47;;;;;;;;;;;;;;;21.54;100.00;99979.94;5031828;28;19921;-83
2023/06/21 06:48:32;;;;;;;;;;;;;;;21.63;100.00;99979.53;5032373;28;19928;-83
2023/06/21 06:50:57;;;;;;;;;;;;;;;21.76;100.00;99980.59;5031939;28;19920;-83
2023/06/21 06:53:23;;;;;;;;;;;;;;;21.80;100.00;99977.28;5031996;28;19962;-83
2023/06/21 06:55:50;;;;;;;;;;;;;;;21.87;100.00;99971.91;5031866;28;20004;-84
2023/06/21 06:58:15;;;;;;;;;;;;;;;21.94;100.00;99975.44;5030807;28;20381;-82
2023/06/21 07:00:41;;;;;;;;;;;;;;;22.04;100.00;99983.94;5031305;28;19974;-82
2023/06/21 07:03:06;;;;;;;;;;;;;;;22.15;100.00;99986.00;5031873;28;20361;-82
2023/06/21 07:05:35;;;;;;;;;;;;;;;22.27;100.00;99995.09;5031502;28;20383;-83
2023/06/21 07:08:00;;;;;;;;;;;;;;;22.38;100.00;99997.16;5031626;28;19928;-82
2023/06/21 07:10:26;;;;;;;;;;;;;;;22.48;100.00;99999.44;5031674;28;19917;-82
2023/06/21 07:12:52;;;;;;;;;;;;;;;22.54;100.00;100008.53;5029113;28;19943;-83
2023/06/21 07:15:17;;;;;;;;;;;;;;;22.62;100.00;100016.41;5027207;28;19924;-80
2023/06/21 07:17:42;;;;;;;;;;;;;;;22.68;100.00;100018.25;5022633;28;19917;-81
2023/06/21 07:20:08;;;;;;;;;;;;;;;22.75;100.00;100024.44;5028094;28;19964;-86
2023/06/21 07:22:33;;;;;;;;;;;;;;;22.84;100.00;100021.34;5031056;28;19917;-86
2023/06/21 07:24:59;;;;;;;;;;;;;;;22.92;100.00;100024.81;5025270;28;19925;-85
2023/06/21 07:27:26;;;;;;;;;;;;;;;22.97;100.00;100017.78;5027993;28;19928;-85
2023/06/21 07:29:52;;;;;;;;;;;;;;;23.03;100.00;100016.91;5026545;28;19933;-85
2023/06/21 07:32:17;;;;;;;;;;;;;;;23.07;100.00;100015.47;5030150;28;19916;-85
2023/06/21 07:34:42;;;;;;;;;;;;;;;23.15;100.00;100012.53;5028546;28;19921;-85
2023/06/21 07:37:08;;;;;;;;;;;;;;;23.22;100.00;100001.72;5032017;28;19952;-83
2023/06/21 07:39:33;;;;;;;;;;;;;;;23.29;100.00;100005.22;5026360;28;19917;-85
2023/06/21 07:42:04;;;;;;;;;;;;;;;23.34;100.00;100002.72;5028464;28;19927;-87
2023/06/21 07:44:29;;;;;;;;;;;;;;;23.41;100.00;99991.91;5025726;28;20385;-83
2023/06/21 07:46:55;;;;;;;;;;;;;;;23.43;100.00;99989.84;5028148;28;20015;-85
2023/06/21 07:49:20;;;;;;;;;;;;;;;23.48;100.00;99987.34;5031573;28;20004;-86
2023/06/21 07:51:46;;;;;;;;;;;;;;;23.55;100.00;99986.28;5025417;28;20043;-91
2023/06/21 07:54:11;;;;;;;;;;;;;;;23.61;100.00;99981.91;5028352;28;19939;-90
2023/06/21 07:56:36;;;;;;;;;;;;;;;23.66;100.00;99980.19;5027851;28;19986;-89
2023/06/21 07:59:02;;;;;;;;;;;;;;;23.72;100.00;99965.03;5029309;28;20003;-91
2023/06/21 08:01:27;;;;;;;;;;;;;;;23.79;100.00;99965.81;5029251;28;19921;-87
2023/06/21 08:03:53;;;;;;;;;;;;;;;23.84;100.00;99965.97;5026872;28;19924;-87
2023/06/21 08:06:18;;;;;;;;;;;;;;;23.92;100.00;99968.38;5028611;28;20015;-85
2023/06/21 08:08:43;;;;;;;;;;;;;;;23.98;100.00;99967.50;5028027;28;19923;-85
2023/06/21 08:11:09;;;;;;;;;;;;;;;24.06;100.00;99964.56;5046349;28;19920;-84
2023/06/21 08:13:34;;;;;;;;;;;;;;;24.16;100.00;99968.59;5030163;28;19917;-84
2023/06/21 08:15:59;;;;;;;;;;;;;;;24.25;100.00;99967.34;5030601;28;20280;-86
2023/06/21 08:18:25;;;;;;;;;;;;;;;24.37;100.00;99966.38;5030458;28;20329;-85
2023/06/21 08:20:50;;;;;;;;;;;;;;;24.47;100.00;99952.38;5030310;28;20436;-85
2023/06/21 08:23:15;;;;;;;;;;;;;;;24.54;100.00;99965.81;5030567;28;19917;-85
2023/06/21 08:25:41;;;;;;;;;;;;;;;24.57;100.00;99968.88;5029993;28;20511;-85
2023/06/21 08:28:06;;;;;;;;;;;;;;;24.62;100.00;99952.03;5030057;28;19932;-85
2023/06/21 08:30:31;;;;;;;;;;;;;;;24.66;100.00;99950.53;5028995;28;19928;-85
2023/06/21 08:32:57;;;;;;;;;;;;;;;24.67;100.00;99953.00;5031240;28;19917;-84
2023/06/21 08:35:22;;;;;;;;;;;;;;;24.67;100.00;99949.47;5026689;28;19924;-85
2023/06/21 08:37:55;;;;;;;;;;;;;;;24.69;100.00;99956.28;5029794;28;19924;-85
2023/06/21 08:40:26;;;;;;;;;;;;;;;24.71;100.00;99956.91;5042209;28;19917;-85
2023/06/21 08:42:52;;;;;;;;;;;;;;;24.75;100.00;99960.78;5030118;28;19925;-85
2023/06/21 08:45:17;;;;;;;;;;;;;;;24.77;100.00;99961.41;5030213;28;19924;-85
2023/06/21 08:47:43;;;;;;;;;;;;;;;24.86;100.00;99964.59;5029786;28;20300;-86
2023/06/21 08:50:11;;;;;;;;;;;;;;;24.96;100.00;99980.31;5030151;28;19917;-86
2023/06/21 08:52:38;;;;;;;;;;;;;;;25.03;100.00;99975.66;5029999;28;19939;-86
2023/06/21 08:55:05;;;;;;;;;;;;;;;25.09;100.00;99969.38;5030490;28;20007;-84
2023/06/21 08:57:37;;;;;;;;;;;;;;;25.16;100.00;99975.47;5029935;28;20051;-86
2023/06/21 09:00:03;;;;;;;;;;;;;;;25.23;100.00;99971.66;5028271;28;19921;-86
2023/06/21 09:02:39;;;;;;;;;;;;;;;25.29;100.00;99968.03;5030378;28;19917;-86
2023/06/21 09:05:08;;;;;;;;;;;;;;;25.37;100.00;99975.00;5028778;28;19950;-84
2023/06/21 09:07:35;;;;;;;;;;;;;;;25.45;100.00;99974.66;5029803;28;19917;-85
2023/06/21 09:10:01;;;;;;;;;;;;;;;25.54;100.00;99978.72;5030061;28;19924;-85
2023/06/21 09:12:30;;;;;;;;;;;;;;;25.63;100.00;99982.75;5037037;28;19917;-88
2023/06/21 09:14:55;;;;;;;;;;;;;;;25.71;100.00;99983.50;5032451;28;19924;-86
2023/06/21 09:17:21;;;;;;;;;;;;;;;25.76;100.00;99986.31;5030231;28;19921;-86
2023/06/21 09:19:47;;;;;;;;;;;;;;;25.84;100.00;99994.13;5031722;28;19924;-85
2023/06/21 09:22:13;;;;;;;;;;;;;;;25.90;100.00;99996.72;5035213;28;19917;-86
2023/06/21 09:24:38;;;;;;;;;;;;;;;25.95;100.00;99985.19;5034878;28;19917;-85
2023/06/21 09:27:04;;;;;;;;;;;;;;;26.00;100.00;99996.13;5034755;28;19962;-84
2023/06/21 09:29:29;;;;;;;;;;;;;;;26.07;100.00;99994.16;5035278;28;19916;-85
2023/06/21 09:31:56;;;;;;;;;;;;;;;26.10;100.00;99999.91;5033749;28;20086;-82
2023/06/21 09:34:21;;;;;;;;;;;;;;;26.14;100.00;100000.28;5034489;28;20353;-86
2023/06/21 09:36:47;;;;;;;;;;;;;;;26.20;100.00;100002.06;5034416;28;20015;-86
2023/06/21 09:39:12;;;;;;;;;;;;;;;26.27;100.00;100008.19;5035163;28;20381;-88
2023/06/21 09:41:38;;;;;;;;;;;;;;;26.32;100.00;99996.69;5035461;28;19917;-86
2023/06/21 09:44:04;;;;;;;;;;;;;;;26.33;100.00;99988.31;5035328;28;20018;-85
2023/06/21 09:46:29;;;;;;;;;;;;;;;26.40;100.00;99988.22;5042898;28;19916;-85
2023/06/21 09:49:05;;;;;;;;;;;;;;;26.42;100.00;100000.47;5053952;28;19917;-86
2023/06/21 09:51:30;;;;;;;;;;;;;;;26.48;98.84;99994.09;5055232;28;19917;-85
2023/06/21 09:53:56;;;;;;;;;;;;;;;26.51;98.73;99983.88;5057366;28;20004;-85
2023/06/21 09:56:22;;;;;;;;;;;;;;;26.55;99.57;99975.03;5054415;28;19924;-86
2023/06/21 09:58:50;;;;;;;;;;;;;;;26.60;98.85;99963.50;5038942;28;19959;-85
2023/06/21 10:01:16;;;;;;;;;;;;;;;26.61;97.35;99952.44;5029986;28;19924;-85
2023/06/21 10:03:45;;;;;;;;;;;;;;;26.63;97.14;99944.06;5032111;28;19925;-86
2023/06/21 10:06:16;;;;;;;;;;;;;;;26.64;95.30;99940.31;5032502;28;19925;-85
2023/06/21 10:08:42;;;;;;;;;;;;;;;26.66;95.90;99930.06;5015828;28;19975;-85
2023/06/21 10:11:07;;;;;;;;;;;;;;;26.73;96.61;99922.66;5033960;28;19917;-85
2023/06/21 10:13:33;;;;;;;;;;;;;;;26.82;93.16;99913.06;5036628;28;19924;-85
2023/06/21 10:16:00;;;;;;;;;;;;;;;26.87;90.38;99891.50;5033293;28;19966;-86
2023/06/21 10:18:25;;;;;;;;;;;;;;;26.91;89.91;99892.72;5033298;28;20364;-85
2023/06/21 10:21:00;;;;;;;;;;;;;;;26.98;91.21;99896.09;5032703;28;19921;-85
2023/06/21 10:23:34;;;;;;;;;;;;;;;27.06;88.06;99928.22;5033162;28;19912;-85
2023/06/21 10:26:05;;;;;;;6.30;5.47;;;;;;;27.12;86.30;99927.25;5030993;28;19924;-85
2023/06/21 10:28:41;;;;;;;8.10;6.40;;;;;;;27.16;88.80;99920.28;5032923;28;20030;-85
2023/06/21 10:31:12;;;;;;;6.00;5.50;;;;;;;27.21;84.23;99923.13;5034890;28;20098;-86
2023/06/21 10:33:38;;;;;;;4.80;4.30;;;;;;;27.26;74.04;99923.22;5032886;28;20107;-85
2023/06/21 10:36:09;;;;;;;6.03;5.18;;;;;;;27.34;78.08;99918.44;5028441;28;20025;-87
2023/06/21 10:38:44;;;;;;;7.07;5.03;;;;;;;27.40;80.51;99909.34;5030605;28;20069;-86
2023/06/21 10:41:11;;;;;;;5.25;4.65;;;;;;;27.47;78.36;99904.59;5033055;28;20042;-85
2023/06/21 10:43:38;;;;;;;4.80;4.35;;;;;;;27.51;76.26;99903.88;5032951;28;20026;-85
2023/06/21 10:46:07;;;;;;;4.97;4.10;;;;;;;27.55;73.00;99899.63;5033295;28;20044;-86
2023/06/21 10:48:33;;;;;;;4.75;4.30;;;;;;;27.56;71.15;99895.88;5032149;28;20033;-85
2023/06/21 10:51:02;;;;;;;5.45;4.60;;;;;;;27.60;70.60;99896.19;5031934;28;20037;-86
2023/06/21 10:53:32;;;;;;;4.20;3.80;;;;;;;27.64;70.99;99910.88;5032564;28;20036;-85
2023/06/21 10:55:59;;;;;;;6.53;4.50;;;;;;;27.69;69.59;99908.25;5031260;28;20026;-85
2023/06/21 10:58:25;;;;;;;4.85;4.30;;;;;;;27.78;70.60;99912.22;5033698;28;20473;-85
2023/06/21 11:00:51;;;;;;;4.72;4.32;;;;;;;27.83;71.20;99911.47;5032686;28;20061;-86
2023/06/21 11:03:23;;;;;;;4.78;4.38;;;;;;;27.87;70.22;99913.44;5033561;28;20026;-85
2023/06/21 11:05:51;;;;;;;;;;;;;;;27.91;70.20;99914.59;5028811;28;20449;-86
2023/06/21 11:08:17;;;;;;;;;;;;;;;27.96;69.72;99911.97;5030108;28;19997;-86
2023/06/21 11:10:43;;;;;;;;;;;;;;;28.02;68.86;99905.56;5033110;28;19944;-84
2023/06/21 11:13:10;;;;;;;;;;;;;;;28.09;70.51;99906.22;5033471;28;20361;-87
2023/06/21 11:15:39;;;;;;;;;;;;;;;28.16;68.15;99900.63;5030656;28;19920;-87
2023/06/21 11:18:08;;;;;;;;;;;;;;;28.22;67.36;99893.38;5031360;28;20332;-83
2023/06/21 11:20:47;;;;;;;;;;;;;;;28.29;66.36;99884.00;5029475;28;19948;-86
2023/06/21 11:23:17;;;;;;;;;;;;;;;28.35;66.69;99871.31;5033436;28;20369;-84
2023/06/21 11:25:53;;;;;;;;;;;;;;;28.40;66.28;99874.91;5021903;28;19953;-83
2023/06/21 11:28:19;;;;;;;;;;;;;;;28.51;66.06;99871.25;5024140;28;19990;-82
2023/06/21 11:31:03;;;;;;;;;;;;;;;28.61;66.56;99875.19;5029324;28;19921;-82
2023/06/21 11:33:29;;;;;;;;;;;;;;;28.68;66.26;99875.81;5029506;28;19917;-82
2023/06/21 11:36:01;;;;;;;;;;;;;;;28.73;66.87;99878.59;5029611;28;19921;-81
2023/06/21 11:38:26;;;;;;;;;;;;;;;28.74;67.45;99875.66;5030570;28;19920;-83
2023/06/21 11:40:52;;;;;;;;;;;;;;;28.79;67.62;99873.00;5032151;28;20036;-83
2023/06/21 11:43:18;;;;;;;;;;;;;;;28.84;68.10;99864.91;5031070;28;20361;-83
2023/06/21 11:45:53;;;;;;;;;;;;;;;28.92;67.81;99857.38;5012438;28;19921;-84
2023/06/21 11:48:23;;;;;;;;;;;;;;;28.95;67.84;99854.16;5023877;28;20365;-85
2023/06/21 11:50:49;;;;;;;;;;;;;;;29.05;68.75;99854.25;5024314;28;19943;-85
2023/06/21 11:53:26;;;;;;;;;;;;;;;29.13;68.66;99845.63;5030384;28;20364;-85
2023/06/21 11:55:57;;;;;;;;;;;;;;;29.23;67.97;99843.00;5030246;28;19952;-86
2023/06/21 11:58:23;;;;;;;;;;;;;;;29.32;68.07;99833.31;5029294;28;20522;-85
2023/06/21 12:00:49;;;;;;;;;;;;;;;29.41;67.82;99837.22;5032898;28;19921;-86
2023/06/21 12:03:14;;;;;;;;;;;;;;;29.43;66.07;99835.09;5032353;28;20112;-85
2023/06/21 12:05:42;;;;;;;;;;;;;;;29.42;64.01;99844.31;5033197;28;19921;-85
2023/06/21 12:08:08;;;;;;;;;;;;;;;29.39;65.00;99831.25;5032465;28;20431;-85
2023/06/21 12:10:33;;;;;;;;;;;;;;;29.35;65.51;99826.56;5030295;28;19917;-85
2023/06/21 12:13:02;;;;;;;;;;;;;;;29.31;65.80;99826.25;5028538;28;20391;-83
2023/06/21 12:15:28;;;;;;;;;;;;;;;29.31;66.18;99834.41;5032454;28;19924;-83
2023/06/21 12:17:53;;;;;;;;;;;;;;;29.25;66.02;99838.97;5025048;28;19921;-84
2023/06/21 12:20:19;;;;;;;;;;;;;;;29.29;65.39;99844.69;5027022;28;19994;-85
2023/06/21 12:22:46;;;;;;;;;;;;;;;29.33;64.23;99840.44;5029031;28;19916;-84
2023/06/21 12:25:12;;;;;;;;;;;;;;;29.36;64.79;99856.22;5031255;28;19921;-90
2023/06/21 12:27:37;;;;;;;;;;;;;;;29.38;64.81;99858.69;5033241;28;19923;-90
2023/06/21 12:30:03;;;;;;;;;;;;;;;29.40;65.30;99851.06;5033596;28;20384;-92
2023/06/21 12:32:28;;;;;;;;;;;;;;;29.47;64.24;99847.06;5029791;28;20385;-91
2023/06/21 12:35:01;;;;;;;;;;;;;;;29.58;63.74;99847.97;5028165;28;20385;-91